Time;durP1;ratioP1;P1;durP2;ratioP2;P2;SDS_P1;SDS_P2;PMS_P1;PMS_P2;Temp;Humidity;BMP_temperature;BMP_pressure;BME280_temperature;BME280_humidity;BME280_pressure;Samples;Min_cycle;Max_cycle;Signal;HPM_P1;HPM_P2
2020/12/27 00:01:56;;;;;;;;;;;;;;;;;;5033333;28;1963;-70
2020/12/27 00:04:21;;;;;;;;;;;;;;;;;;5035862;28;1947;-71
2020/12/27 00:06:46;;;;;;;;;;;;;;;;;;5035323;28;1587;-71
2020/12/27 00:09:11;;;;;;;;;;;;;;;;;;5034836;28;1681;-71
2020/12/27 00:11:37;;;;;;;;;;;;;;;;;;5034877;28;1956;-71
2020/12/27 00:14:02;;;;;;;;;;;;;;;;;;5037021;28;960;-72
2020/12/27 00:16:27;;;;;;;;;;;;;;;;;;5035502;28;1611;-72
2020/12/27 00:18:52;;;;;;;;;;;;;;;;;;5033708;28;1836;-71
2020/12/27 00:21:18;;;;;;;;;;;;;;;;;;5032867;28;2079;-72
2020/12/27 00:23:44;;;;;;;;;;;;;;;;;;5035652;28;1632;-73
2020/12/27 00:26:18;;;;;;;;;;;;;;;;;;5036481;28;1973;-71
2020/12/27 00:28:44;;;;;;;;;;;;;;;;;;5034218;28;1703;-72
2020/12/27 00:31:09;;;;;;;;;;;;;;;;;;5035121;28;1737;-73
2020/12/27 00:33:34;;;;;;;;;;;;;;;;;;5034475;28;1659;-70
2020/12/27 00:36:00;;;;;;;;;;;;;;;;;;5034730;28;1726;-71
2020/12/27 00:38:25;;;;;;;;;;;;;;;;;;5034691;28;1968;-72
2020/12/27 00:40:50;;;;;;;;;;;;;;;;;;5034443;28;1572;-70
2020/12/27 00:43:16;;;;;;;;;;;;;;;;;;5035551;28;889;-70
2020/12/27 00:45:41;;;;;;;;;;;;;;;;;;5033827;28;1961;-71
2020/12/27 00:48:06;;;;;;;;;;;;;;;;;;5033921;28;1629;-71
2020/12/27 00:50:32;;;;;;;;;;;;;;;;;;5033413;28;1833;-70
2020/12/27 00:52:57;;;;;;;;;;;;;;;;;;5016502;28;1004;-71
2020/12/27 00:55:22;;;;;;;;;;;;;;;;;;5016009;28;1741;-70
2020/12/27 00:57:47;;;;;;;;;;;;;;;;;;5035561;28;1485;-70
2020/12/27 01:00:13;;;;;;;;;;;;;;;;;;5034680;28;1777;-73
2020/12/27 01:02:38;;;;;;;;;;;;;;;;;;5034334;28;1806;-72
2020/12/27 01:05:03;;;;;;;;;;;;;;;;;;5035271;28;1914;-72
2020/12/27 01:07:28;;;;;;;;;;;;;;;;;;5033891;28;1731;-70
2020/12/27 01:09:54;;;;;;;;;;;;;;;;;;5033957;28;2020;-73
2020/12/27 01:12:19;;;;;;;;;;;;;;;;;;5035084;28;2064;-71
2020/12/27 01:14:44;;;;;;;;;;;;;;;;;;5034268;28;1923;-73
2020/12/27 01:17:09;;;;;;;;;;;;;;;;;;5035992;28;897;-71
2020/12/27 01:19:35;;;;;;;;;;;;;;;;;;5033932;28;3495;-71
2020/12/27 01:22:00;;;;;;;;;;;;;;;;;;5033021;28;1811;-73
2020/12/27 01:24:25;;;;;;;;;;;;;;;;;;5031013;28;1902;-73
2020/12/27 01:26:51;;;;;;;;;;;;;;;;;;5014786;28;1160;-70
2020/12/27 01:29:16;;;;;;;;;;;;;;;;;;5050870;28;1647;-71
2020/12/27 01:31:41;;;;;;;;;;;;;;;;;;5032609;28;1844;-71
2020/12/27 01:34:06;;;;;;;;;;;;;;;;;;5035429;28;1714;-70
2020/12/27 01:36:33;;;;;;;;;;;;;;;;;;5033336;28;1910;-73
2020/12/27 01:38:59;;;;;;;;;;;;;;;;;;5015657;28;834;-71
2020/12/27 01:41:24;;;;;;;;;;;;;;;;;;5022064;28;1662;-71
2020/12/27 01:43:57;;;;;;;;;;;;;;;;;;5034246;28;1199;-72
2020/12/27 01:46:22;;;;;;;;;;;;;;;;;;5032798;28;1963;-73
2020/12/27 01:48:47;;;;;;;;;;;;;;;;;;5033556;28;1882;-72
2020/12/27 01:51:13;;;;;;;;;;;;;;;;;;5033387;28;1903;-71
2020/12/27 01:53:38;;;;;;;;;;;;;;;;;;5034554;28;1615;-72
2020/12/27 01:56:04;;;;;;;;;;;;;;;;;;5033447;28;2002;-67
2020/12/27 01:58:32;;;;;;;;;;;;;;;;;;5034244;28;1794;-66
2020/12/27 02:00:58;;;;;;;;;;;;;;;;;;5032814;28;1735;-66
2020/12/27 02:03:24;;;;;;;;;;;;;;;;;;5035193;28;979;-66
2020/12/27 02:05:50;;;;;;;;;;;;;;;;;;5033257;28;1946;-66
2020/12/27 02:08:18;;;;;;;;;;;;;;;;;;5033086;28;1723;-66
2020/12/27 02:10:44;;;;;;;;;;;;;;;;;;5034138;28;2055;-66
2020/12/27 02:13:10;;;;;;;;;;;;;;;;;;5033132;28;1822;-66
2020/12/27 02:15:35;;;;;;;;;;;;;;;;;;5013139;28;1881;-65
2020/12/27 02:18:00;;;;;;;;;;;;;;;;;;5032006;28;2426;-66
2020/12/27 02:20:26;;;;;;;;;;;;;;;;;;5033931;28;1754;-66
2020/12/27 02:22:51;;;;;;;;;;;;;;;;;;5032922;28;2090;-66
2020/12/27 02:25:17;;;;;;;;;;;;;;;;;;5034499;28;1890;-66
2020/12/27 02:27:42;;;;;;;;;;;;;;;;;;5031702;28;2044;-66
2020/12/27 02:30:07;;;;;;;;;;;;;;;;;;5033869;28;1460;-66
2020/12/27 02:32:33;;;;;;;;;;;;;;;;;;5034582;28;855;-66
2020/12/27 02:34:58;;;;;;;;;;;;;;;;;;5033236;28;1386;-67
2020/12/27 02:37:23;;;;;;;;;;;;;;;;;;5032658;28;1928;-66
2020/12/27 02:39:48;;;;;;;;;;;;;;;;;;5032825;28;1918;-67
2020/12/27 02:42:14;;;;;;;;;;;;;;;;;;5032593;28;1983;-66
2020/12/27 02:44:47;;;;;;;;;;;;;;;;;;5034143;28;1890;-66
2020/12/27 02:47:13;;;;;;;;;;;;;;;;;;5032580;28;1969;-66
2020/12/27 02:49:38;;;;;;;;;;;;;;;;;;5034125;28;2006;-66
2020/12/27 02:52:03;;;;;;;;;;;;;;;;;;5030604;28;1908;-67
2020/12/27 02:54:28;;;;;;;;;;;;;;;;;;5033500;28;1760;-67
2020/12/27 02:56:53;;;;;;;;;;;;;;;;;;5033521;28;1750;-67
2020/12/27 02:59:19;;;;;;;;;;;;;;;;;;5034099;28;1218;-67
2020/12/27 03:01:45;;;;;;;;;;;;;;;;;;5031405;28;1685;-67
2020/12/27 03:04:10;;;;;;;;;;;;;;;;;;5033589;28;2035;-66
2020/12/27 03:06:35;;;;;;;;;;;;;;;;;;5031739;28;1951;-67
2020/12/27 03:09:00;;;;;;;;;;;;;;;;;;5048768;28;1997;-67
2020/12/27 03:11:26;;;;;;;;;;;;;;;;;;5032433;28;1675;-66
2020/12/27 03:13:52;;;;;;;;;;;;;;;;;;5033921;28;829;-67
2020/12/27 03:16:17;;;;;;;;;;;;;;;;;;5032538;28;1475;-66
2020/12/27 03:18:42;;;;;;;;;;;;;;;;;;5032387;28;1703;-67
2020/12/27 03:21:07;;;;;;;;;;;;;;;;;;5029557;28;1768;-67
2020/12/27 03:23:33;;;;;;;;;;;;;;;;;;5032692;28;927;-66
2020/12/27 03:25:58;;;;;;;;;;;;;;;;;;5032865;28;1985;-65
2020/12/27 03:28:23;;;;;;;;;;;;;;;;;;5032444;28;1406;-66
2020/12/27 03:30:48;;;;;;;;;;;;;;;;;;5031898;28;2030;-66
2020/12/27 03:33:14;;;;;;;;;;;;;;;;;;5032066;28;2023;-66
2020/12/27 03:35:39;;;;;;;;;;;;;;;;;;5033146;28;1963;-66
2020/12/27 03:38:04;;;;;;;;;;;;;;;;;;5033821;28;829;-66
2020/12/27 03:40:29;;;;;;;;;;;;;;;;;;5033443;28;2020;-67
2020/12/27 03:42:55;;;;;;;;;;;;;;;;;;5033165;28;1699;-66
2020/12/27 03:45:20;;;;;;;;;;;;;;;;;;5031548;28;1900;-66
2020/12/27 03:47:45;;;;;;;;;;;;;;;;;;5031365;28;1665;-66
2020/12/27 03:50:11;;;;;;;;;;;;;;;;;;5032896;28;1692;-66
2020/12/27 03:52:36;;;;;;;;;;;;;;;;;;5031120;28;1813;-66
2020/12/27 03:55:01;;;;;;;;;;;;;;;;;;5033503;28;2008;-67
2020/12/27 03:57:26;;;;;;;;;;;;;;;;;;5032904;28;1623;-66
2020/12/27 03:59:52;;;;;;;;;;;;;;;;;;5033411;28;888;-66
2020/12/27 04:02:17;;;;;;;;;;;;;;;;;;5031177;28;1711;-67
2020/12/27 04:04:42;;;;;;;;;;;;;;;;;;5031774;28;1969;-67
2020/12/27 04:07:07;;;;;;;;;;;;;;;;;;5031365;28;1819;-66
2020/12/27 04:09:33;;;;;;;;;;;;;;;;;;5032789;28;1890;-66
2020/12/27 04:11:58;;;;;;;;;;;;;;;;;;5032525;28;1987;-66
2020/12/27 04:14:23;;;;;;;;;;;;;;;;;;5031508;28;2011;-66
2020/12/27 04:16:49;;;;;;;;;;;;;;;;;;5031606;28;1840;-66
2020/12/27 04:19:14;;;;;;;;;;;;;;;;;;5032554;28;1574;-67
2020/12/27 04:21:42;;;;;;;;;;;;;;;;;;5031269;28;1661;-66
2020/12/27 04:24:07;;;;;;;;;;;;;;;;;;5031725;28;1935;-67
2020/12/27 04:26:32;;;;;;;;;;;;;;;;;;5032545;28;2085;-66
2020/12/27 04:28:58;;;;;;;;;;;;;;;;;;5032179;28;1774;-66
2020/12/27 04:31:23;;;;;;;;;;;;;;;;;;5034368;28;1783;-66
2020/12/27 04:33:48;;;;;;;;;;;;;;;;;;5035182;28;1948;-67
2020/12/27 04:36:17;;;;;;;;;;;;;;;;;;5036639;28;1357;-66
2020/12/27 04:38:42;;;;;;;;;;;;;;;;;;5035395;28;1938;-66
2020/12/27 04:41:08;;;;;;;;;;;;;;;;;;5034302;28;1717;-67
2020/12/27 04:43:35;;;;;;;;;;;;;;;;;;5034693;28;2007;-66
2020/12/27 04:46:02;;;;;;;;;;;;;;;;;;5034188;28;2144;-66
2020/12/27 04:48:28;;;;;;;;;;;;;;;;;;5035208;28;1670;-67
2020/12/27 04:50:54;;;;;;;;;;;;;;;;;;5034062;28;1702;-67
2020/12/27 04:53:20;;;;;;;;;;;;;;;;;;5034428;28;1885;-67
2020/12/27 04:55:45;;;;;;;;;;;;;;;;;;5034655;28;1698;-67
2020/12/27 04:58:14;;;;;;;;;;;;;;;;;;5016768;28;826;-67
2020/12/27 05:00:39;;;;;;;;;;;;;;;;;;5031170;28;1819;-66
2020/12/27 05:03:04;;;;;;;;;;;;;;;;;;5036346;28;1620;-68
2020/12/27 05:05:29;;;;;;;;;;;;;;;;;;5035505;28;1923;-67
2020/12/27 05:07:55;;;;;;;;;;;;;;;;;;5036024;28;1741;-66
2020/12/27 05:10:21;;;;;;;;;;;;;;;;;;5035291;28;1360;-66
2020/12/27 05:12:47;;;;;;;;;;;;;;;;;;5035915;28;1603;-66
2020/12/27 05:15:12;;;;;;;;;;;;;;;;;;5034331;28;1820;-66
2020/12/27 05:17:37;;;;;;;;;;;;;;;;;;5032832;28;1611;-66
2020/12/27 05:20:06;;;;;;;;;;;;;;;;;;5034677;28;1683;-67
2020/12/27 05:22:32;;;;;;;;;;;;;;;;;;5035703;28;1548;-67
2020/12/27 05:24:57;;;;;;;;;;;;;;;;;;5036305;28;1901;-67
2020/12/27 05:27:24;;;;;;;;;;;;;;;;;;5035354;28;1891;-67
2020/12/27 05:29:49;;;;;;;;;;;;;;;;;;5018495;28;916;-67
2020/12/27 05:32:14;;;;;;;;;;;;;;;;;;5034378;28;2131;-66
2020/12/27 05:34:40;;;;;;;;;;;;;;;;;;5036432;28;1448;-66
2020/12/27 05:37:06;;;;;;;;;;;;;;;;;;5034658;28;1808;-66
2020/12/27 05:39:31;;;;;;;;;;;;;;;;;;5036241;28;1106;-66
2020/12/27 05:41:58;;;;;;;;;;;;;;;;;;5034623;28;1151;-66
2020/12/27 05:44:24;;;;;;;;;;;;;;;;;;5034660;28;1934;-66
2020/12/27 05:46:50;;;;;;;;;;;;;;;;;;5033411;28;1898;-66
2020/12/27 05:49:16;;;;;;;;;;;;;;;;;;5035022;28;1691;-66
2020/12/27 05:51:50;;;;;;;;;;;;;;;;;;5033808;28;2061;-66
2020/12/27 05:54:20;;;;;;;;;;;;;;;;;;5035288;28;1699;-66
2020/12/27 05:56:47;;;;;;;;;;;;;;;;;;5034371;28;1896;-66
2020/12/27 05:59:12;;;;;;;;;;;;;;;;;;5034654;28;942;-66
2020/12/27 06:01:37;;;;;;;;;;;;;;;;;;5034144;28;2036;-66
2020/12/27 06:04:03;;;;;;;;;;;;;;;;;;5034119;28;1970;-66
2020/12/27 06:06:47;;;;;;;;;;;;;;;;;;5033738;28;1882;-66
2020/12/27 06:09:24;;;;;;;;;;;;;;;;;;5034296;28;1815;-66
2020/12/27 06:11:53;;;;;;;;;;;;;;;;;;5034974;28;1795;-66
2020/12/27 06:14:28;;;;;;;;;;;;;;;;;;5024221;28;1955;-66
2020/12/27 06:17:03;;;;;;;;;;;;;;;;;;5032860;28;1630;-66
2020/12/27 06:19:37;;;;;;;;;;;;;;;;;;5035173;28;892;-66
2020/12/27 06:22:04;;;;;;;;;;;;;;;;;;5032984;28;1686;-67
2020/12/27 06:24:30;;;;;;;;;;;;;;;;;;5033692;28;1791;-67
2020/12/27 06:26:56;;;;;;;;;;;;;;;;;;5034133;28;1919;-66
2020/12/27 06:29:21;;;;;;;;;;;;;;;;;;5035121;28;798;-66
2020/12/27 06:31:50;;;;;;;;;;;;;;;;;;5033207;28;1763;-67
2020/12/27 06:34:15;;;;;;;;;;;;;;;;;;5033695;28;2054;-67
2020/12/27 06:36:41;;;;;;;;;;;;;;;;;;5033807;28;854;-66
2020/12/27 06:39:25;;;;;;;;;;;;;;;;;;5034286;28;866;-66
2020/12/27 06:42:10;;;;;;;;;;;;;;;;;;5034364;28;2050;-66
2020/12/27 06:44:43;;;;;;;;;;;;;;;;;;5033251;28;1890;-66
2020/12/27 06:47:11;;;;;;;;;;;;;;;;;;5034005;28;1335;-66
2020/12/27 06:49:37;;;;;;;;;;;;;;;;;;5033499;28;2142;-66
2020/12/27 06:52:19;;;;;;;;;;;;;;;;;;5032384;28;1785;-69
2020/12/27 06:54:48;;;;;;;;;;;;;;;;;;5034676;28;1334;-68
2020/12/27 06:57:33;;;;;;;;;;;;;;;;;;5033637;28;1228;-68
2020/12/27 07:00:16;;;;;;;;;;;;;;;;;;5033109;28;2010;-68
2020/12/27 07:02:42;;;;;;;;;;;;;;;;;;5034707;28;1866;-68
2020/12/27 07:05:08;;;;;;;;;;;;;;;;;;5034527;28;1894;-68
2020/12/27 07:08:02;;;;;;;;;;;;;;;;;;5033479;28;984;-68
2020/12/27 07:10:28;;;;;;;;;;;;;;;;;;5030147;28;1893;-68
2020/12/27 07:13:00;;;;;;;;;;;;;;;;;;5034657;28;925;-68
2020/12/27 07:15:27;;;;;;;;;;;;;;;;;;5034311;28;1609;-68
2020/12/27 07:17:53;;;;;;;;;;;;;;;;;;5034592;28;912;-68
2020/12/27 07:20:18;;;;;;;;;;;;;;;;;;5032370;28;1694;-68
2020/12/27 07:22:43;;;;;;;;;;;;;;;;;;5032876;28;1960;-68
2020/12/27 07:25:14;;;;;;;;;;;;;;;;;;5034320;28;1890;-68
2020/12/27 07:27:40;;;;;;;;;;;;;;;;;;5033223;28;1211;-68
2020/12/27 07:30:05;;;;;;;;;;;;;;;;;;5032968;28;1623;-68
2020/12/27 07:32:32;;;;;;;;;;;;;;;;;;5034287;28;1988;-68
2020/12/27 07:34:57;;;;;;;;;;;;;;;;;;5033143;28;1357;-68
2020/12/27 07:37:24;;;;;;;;;;;;;;;;;;5033558;28;1692;-68
2020/12/27 07:39:57;;;;;;;;;;;;;;;;;;5032315;28;1884;-68
2020/12/27 07:42:29;;;;;;;;;;;;;;;;;;5034301;28;875;-68
2020/12/27 07:44:59;;;;;;;;;;;;;;;;;;5031965;28;1894;-68
2020/12/27 07:47:24;;;;;;;;;;;;;;;;;;5033010;28;1313;-68
2020/12/27 07:50:03;;;;;;;;;;;;;;;;;;5034124;28;974;-68
2020/12/27 07:52:46;;;;;;;;;;;;;;;;;;5032925;28;1220;-68
2020/12/27 07:55:18;;;;;;;;;;;;;;;;;;5018075;28;1627;-68
2020/12/27 07:57:44;;;;;;;;;;;;;;;;;;5033948;28;1003;-68
2020/12/27 08:00:09;;;;;;;;;;;;;;;;;;5034003;28;1107;-68
2020/12/27 08:02:34;;;;;;;;;;;;;;;;;;5034118;28;1047;-68
2020/12/27 08:05:00;;;;;;;;;;;;;;;;;;5034761;28;2257;-68
2020/12/27 08:07:25;;;;;;;;;;;;;;;;;;5037889;28;797;-68
2020/12/27 08:09:50;;;;;;;;;;;;;;;;;;5037723;28;1704;-68
2020/12/27 08:12:16;;;;;;;;;;;;;;;;;;5037629;28;1793;-68
2020/12/27 08:14:42;;;;;;;;;;;;;;;;;;5036895;28;1785;-68
2020/12/27 08:17:13;;;;;;;;;;;;;;;;;;5037980;28;936;-68
2020/12/27 08:19:38;;;;;;;;;;;;;;;;;;5037802;28;849;-68
2020/12/27 08:22:04;;;;;;;;;;;;;;;;;;5036174;28;2027;-68
2020/12/27 08:24:29;;;;;;;;;;;;;;;;;;5036332;28;1810;-68
2020/12/27 08:26:54;;;;;;;;;;;;;;;;;;5035091;28;2168;-68
2020/12/27 08:29:23;;;;;;;;;;;;;;;;;;5035802;28;2020;-68
2020/12/27 08:31:49;;;;;;;;;;;;;;;;;;5034788;28;1603;-69
2020/12/27 08:34:15;;;;;;;;;;;;;;;;;;5037464;28;1326;-68
2020/12/27 08:36:44;;;;;;;;;;;;;;;;;;5037044;28;1852;-69
2020/12/27 08:39:12;;;;;;;;;;;;;;;;;;5036764;28;1751;-68
2020/12/27 08:41:39;;;;;;;;;;;;;;;;;;5036585;28;1872;-69
2020/12/27 08:44:07;;;;;;;;;;;;;;;;;;5036241;28;869;-68
2020/12/27 08:46:34;;;;;;;;;;;;;;;;;;5037193;28;1910;-68
2020/12/27 08:49:22;;;;;;;;;;;;;;;;;;5035387;28;1735;-68
2020/12/27 08:51:52;;;;;;;;;;;;;;;;;;5032757;28;2041;-68
2020/12/27 08:54:19;;;;;;;;;;;;;;;;;;5028642;28;1731;-69
2020/12/27 08:56:44;;;;;;;;;;;;;;;;;;5034436;28;1830;-68
2020/12/27 08:59:13;;;;;;;;;;;;;;;;;;5035742;28;1845;-69
2020/12/27 09:01:39;;;;;;;;;;;;;;;;;;5034648;28;1682;-68
2020/12/27 09:04:04;;;;;;;;;;;;;;;;;;5034466;28;1663;-68
2020/12/27 09:06:29;;;;;;;;;;;;;;;;;;5034388;28;2127;-68
2020/12/27 09:08:58;;;;;;;;;;;;;;;;;;5033155;28;1770;-68
2020/12/27 09:11:24;;;;;;;;;;;;;;;;;;5031703;28;1880;-68
2020/12/27 09:13:49;;;;;;;;;;;;;;;;;;5033099;28;1799;-68
2020/12/27 09:16:29;;;;;;;;;;;;;;;;;;5034596;28;1925;-68
2020/12/27 09:18:54;;;;;;;;;;;;;;;;;;5035634;28;2070;-68
2020/12/27 09:21:20;;;;;;;;;;;;;;;;;;5016034;28;1942;-68
2020/12/27 09:23:45;;;;;;;;;;;;;;;;;;5032902;28;1885;-68
2020/12/27 09:26:13;;;;;;;;;;;;;;;;;;5033265;28;2118;-68
2020/12/27 09:28:39;;;;;;;;;;;;;;;;;;5032213;28;1830;-68
2020/12/27 09:31:08;;;;;;;;;;;;;;;;;;5036039;28;1198;-68
2020/12/27 09:33:38;;;;;;;;;;;;;;;;;;5036402;28;873;-68
2020/12/27 09:36:05;;;;;;;;;;;;;;;;;;5036026;28;1405;-68
2020/12/27 09:38:32;;;;;;;;;;;;;;;;;;5035043;28;810;-68
2020/12/27 09:41:05;;;;;;;;;;;;;;;;;;5035892;28;813;-68
2020/12/27 09:43:30;;;;;;;;;;;;;;;;;;5036150;28;1596;-68
2020/12/27 09:45:56;;;;;;;;;;;;;;;;;;5035846;28;1902;-68
2020/12/27 09:48:29;;;;;;;;;;;;;;;;;;5036007;28;809;-68
2020/12/27 09:50:54;;;;;;;;;;;;;;;;;;5035698;28;1633;-69
2020/12/27 09:53:20;;;;;;;;;;;;;;;;;;5034986;28;1141;-68
2020/12/27 09:55:45;;;;;;;;;;;;;;;;;;5034517;28;1348;-68
2020/12/27 09:58:13;;;;;;;;;;;;;;;;;;5035601;28;1609;-68
2020/12/27 10:00:38;;;;;;;;;;;;;;;;;;5035743;28;1839;-68
2020/12/27 10:03:04;;;;;;;;;;;;;;;;;;5035905;28;809;-69
2020/12/27 10:05:29;;;;;;;;;;;;;;;;;;5035873;28;1951;-69
2020/12/27 10:07:54;;;;;;;;;;;;;;;;;;5034475;28;1129;-69
2020/12/27 10:10:19;;;;;;;;;;;;;;;;;;5035285;28;1003;-69
2020/12/27 10:12:45;;;;;;;;;;;;;;;;;;5035327;28;1653;-68
2020/12/27 10:15:10;;;;;;;;;;;;;;;;;;5035439;28;1555;-68
2020/12/27 10:17:36;;;;;;;;;;;;;;;;;;5034087;28;925;-68
2020/12/27 10:20:02;;;;;;;;;;;;;;;;;;5034108;28;1539;-68
2020/12/27 10:22:27;;;;;;;;;;;;;;;;;;5035220;28;1767;-68
2020/12/27 10:24:53;;;;;;;;;;;;;;;;;;5033914;28;1894;-68
2020/12/27 10:27:19;;;;;;;;;;;;;;;;;;5033987;28;1818;-68
2020/12/27 10:29:44;;;;;;;;;;;;;;;;;;5033825;28;1393;-68
2020/12/27 10:32:09;;;;;;;;;;;;;;;;;;5035252;28;892;-69
2020/12/27 10:34:35;;;;;;;;;;;;;;;;;;5035090;28;1338;-68
2020/12/27 10:37:00;;;;;;;;;;;;;;;;;;5035019;28;817;-68
2020/12/27 10:39:26;;;;;;;;;;;;;;;;;;5033661;28;822;-68
2020/12/27 10:41:52;;;;;;;;;;;;;;;;;;5017287;28;1428;-68
2020/12/27 10:44:18;;;;;;;;;;;;;;;;;;5035083;28;2081;-68
2020/12/27 10:46:43;;;;;;;;;;;;;;;;;;5033518;28;1906;-68
2020/12/27 10:49:09;;;;;;;;;;;;;;;;;;5033919;28;1365;-68
2020/12/27 10:51:35;;;;;;;;;;;;;;;;;;5033815;28;1244;-68
2020/12/27 10:54:01;;;;;;;;;;;;;;;;;;5033765;28;1234;-68
2020/12/27 10:56:26;;;;;;;;;;;;;;;;;;5034870;28;1477;-69
2020/12/27 10:58:51;;;;;;;;;;;;;;;;;;5033347;28;1798;-68
2020/12/27 11:01:16;;;;;;;;;;;;;;;;;;5034732;28;979;-68
2020/12/27 11:03:42;;;;;;;;;;;;;;;;;;5034827;28;940;-68
2020/12/27 11:06:07;;;;;;;;;;;;;;;;;;5034709;28;1973;-69
2020/12/27 11:08:33;;;;;;;;;;;;;;;;;;5034698;28;813;-68
2020/12/27 11:10:59;;;;;;;;;;;;;;;;;;5033169;28;1416;-68
2020/12/27 11:13:24;;;;;;;;;;;;;;;;;;5034413;28;2013;-68
2020/12/27 11:15:49;;;;;;;;;;;;;;;;;;5034782;28;1306;-69
2020/12/27 11:18:15;;;;;;;;;;;;;;;;;;5033699;28;1845;-68
2020/12/27 11:20:40;;;;;;;;;;;;;;;;;;5034148;28;2064;-68
2020/12/27 11:23:05;;;;;;;;;;;;;;;;;;5034526;28;853;-68
2020/12/27 11:25:30;;;;;;;;;;;;;;;;;;5034497;28;1975;-68
2020/12/27 11:27:56;;;;;;;;;;;;;;;;;;5033348;28;837;-68
2020/12/27 11:30:21;;;;;;;;;;;;;;;;;;5033221;28;1683;-68
2020/12/27 11:32:46;;;;;;;;;;;;;;;;;;5034361;28;866;-68
2020/12/27 11:35:11;;;;;;;;;;;;;;;;;;5033087;28;1410;-68
2020/12/27 11:37:37;;;;;;;;;;;;;;;;;;5034435;28;896;-68
2020/12/27 11:40:03;;;;;;;;;;;;;;;;;;5036824;28;880;-68
2020/12/27 11:42:28;;;;;;;;;;;;;;;;;;5036948;28;1757;-68
2020/12/27 11:44:53;;;;;;;;;;;;;;;;;;5037937;28;1883;-68
2020/12/27 11:47:19;;;;;;;;;;;;;;;;;;5038203;28;2055;-68
2020/12/27 11:49:44;;;;;;;;;;;;;;;;;;5038141;28;1697;-68
2020/12/27 11:52:09;;;;;;;;;;;;;;;;;;5038514;28;1724;-68
2020/12/27 11:54:34;;;;;;;;;;;;;;;;;;5037163;28;1373;-68
2020/12/27 11:57:00;;;;;;;;;;;;;;;;;;5037997;28;855;-68
2020/12/27 11:59:25;;;;;;;;;;;;;;;;;;5038196;28;760;-68
2020/12/27 12:01:51;;;;;;;;;;;;;;;;;;5036944;28;2048;-68
2020/12/27 12:04:16;;;;;;;;;;;;;;;;;;5037598;28;1727;-68
2020/12/27 12:06:45;;;;;;;;;;;;;;;;;;5037886;28;1894;-67
2020/12/27 12:09:10;;;;;;;;;;;;;;;;;;5037922;28;981;-66
2020/12/27 12:11:36;;;;;;;;;;;;;;;;;;5037757;28;864;-66
2020/12/27 12:14:01;;;;;;;;;;;;;;;;;;5037674;28;943;-66
2020/12/27 12:16:27;;;;;;;;;;;;;;;;;;5037880;28;1315;-66
2020/12/27 12:18:52;;;;;;;;;;;;;;;;;;5037775;28;1854;-66
2020/12/27 12:21:18;;;;;;;;;;;;;;;;;;5037479;28;1759;-66
2020/12/27 12:23:43;;;;;;;;;;;;;;;;;;5037468;28;2195;-66
2020/12/27 12:26:09;;;;;;;;;;;;;;;;;;5036050;28;2005;-66
2020/12/27 12:28:34;;;;;;;;;;;;;;;;;;5037744;28;840;-66
2020/12/27 12:31:00;;;;;;;;;;;;;;;;;;5037362;28;839;-67
2020/12/27 12:33:25;;;;;;;;;;;;;;;;;;5036364;28;1569;-67
2020/12/27 12:35:50;;;;;;;;;;;;;;;;;;5036631;28;1710;-67
2020/12/27 12:38:15;;;;;;;;;;;;;;;;;;5035750;28;845;-67
2020/12/27 12:40:42;;;;;;;;;;;;;;;;;;5036840;28;901;-68
2020/12/27 12:43:07;;;;;;;;;;;;;;;;;;5037072;28;912;-67
2020/12/27 12:45:33;;;;;;;;;;;;;;;;;;5036783;28;1963;-65
2020/12/27 12:47:58;;;;;;;;;;;;;;;;;;5037316;28;860;-69
2020/12/27 12:50:24;;;;;;;;;;;;;;;;;;5035047;28;1181;-68
2020/12/27 12:52:49;;;;;;;;;;;;;;;;;;5036722;28;2018;-71
2020/12/27 12:55:14;;;;;;;;;;;;;;;;;;5036027;28;1354;-67
2020/12/27 12:57:40;;;;;;;;;;;;;;;;;;5035795;28;1299;-66
2020/12/27 13:00:05;;;;;;;;;;;;;;;;;;5036657;28;794;-68
2020/12/27 13:02:30;;;;;;;;;;;;;;;;;;5035746;28;1362;-67
2020/12/27 13:04:56;;;;;;;;;;;;;;;;;;5036761;28;1981;-67
2020/12/27 13:07:21;;;;;;;;;;;;;;;;;;5035671;28;846;-67
2020/12/27 13:09:46;;;;;;;;;;;;;;;;;;5036591;28;1754;-67
2020/12/27 13:12:12;;;;;;;;;;;;;;;;;;5036722;28;892;-67
2020/12/27 13:14:37;;;;;;;;;;;;;;;;;;5036722;28;1401;-67
2020/12/27 13:17:02;;;;;;;;;;;;;;;;;;5035224;28;1898;-67
2020/12/27 13:19:27;;;;;;;;;;;;;;;;;;5036885;28;825;-67
2020/12/27 13:21:52;;;;;;;;;;;;;;;;;;5036118;28;970;-67
2020/12/27 13:24:18;;;;;;;;;;;;;;;;;;5036558;28;1786;-66
2020/12/27 13:26:43;;;;;;;;;;;;;;;;;;5036446;28;1959;-71
2020/12/27 13:29:09;;;;;;;;;;;;;;;;;;5036339;28;924;-69
2020/12/27 13:31:38;;;;;;;;;;;;;;;;;;5034994;28;1329;-73
2020/12/27 13:34:04;;;;;;;;;;;;;;;;;;5034826;28;1399;-68
2020/12/27 13:36:29;;;;;;;;;;;;;;;;;;5035947;28;1298;-67
2020/12/27 13:38:54;;;;;;;;;;;;;;;;;;5036168;28;1735;-66
2020/12/27 13:41:19;;;;;;;;;;;;;;;;;;5036296;28;798;-66
2020/12/27 13:43:45;;;;;;;;;;;;;;;;;;5036154;28;873;-67
2020/12/27 13:46:10;;;;;;;;;;;;;;;;;;5035821;28;1953;-67
2020/12/27 13:48:36;;;;;;;;;;;;;;;;;;5034831;28;1416;-67
2020/12/27 13:51:01;;;;;;;;;;;;;;;;;;5034567;28;1724;-67
2020/12/27 13:53:26;;;;;;;;;;;;;;;;;;5035818;28;1704;-67
2020/12/27 13:55:51;;;;;;;;;;;;;;;;;;5035969;28;1405;-67
2020/12/27 13:58:17;;;;;;;;;;;;;;;;;;5035762;28;1800;-76
2020/12/27 14:00:42;;;;;;;;;;;;;;;;;;5035035;28;900;-73
2020/12/27 14:03:07;;;;;;;;;;;;;;;;;;5034907;28;2034;-74
2020/12/27 14:05:34;;;;;;;;;;;;;;;;;;5035143;28;1902;-75
2020/12/27 14:07:59;;;;;;;;;;;;;;;;;;5035365;28;1775;-73
2020/12/27 14:10:24;;;;;;;;;;;;;;;;;;5034191;28;1275;-75
2020/12/27 14:12:50;;;;;;;;;;;;;;;;;;5034751;28;1259;-76
2020/12/27 14:15:15;;;;;;;;;;;;;;;;;;5034237;28;1486;-75
2020/12/27 14:17:40;;;;;;;;;;;;;;;;;;5034600;28;2043;-76
2020/12/27 14:20:05;;;;;;;;;;;;;;;;;;5034229;28;1248;-73
2020/12/27 14:22:31;;;;;;;;;;;;;;;;;;5026268;28;1522;-77
2020/12/27 14:24:56;;;;;;;;;;;;;;;;;;5025226;28;1902;-75
2020/12/27 14:27:24;;;;;;;;;;;;;;;;;;5024158;28;1799;-76
2020/12/27 14:29:49;;;;;;;;;;;;;;;;;;5022369;28;1667;-76
2020/12/27 14:32:14;;;;;;;;;;;;;;;;;;5027418;28;1508;-76
2020/12/27 14:34:39;;;;;;;;;;;;;;;;;;5033588;28;1801;-74
2020/12/27 14:37:05;;;;;;;;;;;;;;;;;;5035277;28;1217;-74
2020/12/27 14:39:30;;;;;;;;;;;;;;;;;;5033947;28;866;-76
2020/12/27 14:41:55;;;;;;;;;;;;;;;;;;5034045;28;1290;-76
2020/12/27 14:44:21;;;;;;;;;;;;;;;;;;5034999;28;1294;-75
2020/12/27 14:46:47;;;;;;;;;;;;;;;;;;5034725;28;1965;-75
2020/12/27 14:49:12;;;;;;;;;;;;;;;;;;5033884;28;1840;-76
2020/12/27 14:51:37;;;;;;;;;;;;;;;;;;5033300;28;1797;-76
2020/12/27 14:54:03;;;;;;;;;;;;;;;;;;5033714;28;1236;-76
2020/12/27 14:56:34;;;;;;;;;;;;;;;;;;5034763;28;1417;-75
2020/12/27 14:59:00;;;;;;;;;;;;;;;;;;5034429;28;821;-77
2020/12/27 15:01:25;;;;;;;;;;;;;;;;;;5026681;28;1560;-74
2020/12/27 15:03:50;;;;;;;;;;;;;;;;;;5034580;28;948;-75
2020/12/27 15:06:15;;;;;;;;;;;;;;;;;;5034195;28;1898;-74
2020/12/27 15:08:41;;;;;;;;;;;;;;;;;;5034914;28;853;-76
2020/12/27 15:11:06;;;;;;;;;;;;;;;;;;5032918;28;1825;-74
2020/12/27 15:13:31;;;;;;;;;;;;;;;;;;5026393;28;1856;-77
2020/12/27 15:15:56;;;;;;;;;;;;;;;;;;5023753;28;1369;-77
2020/12/27 15:18:22;;;;;;;;;;;;;;;;;;5016624;28;1900;-75
2020/12/27 15:20:47;;;;;;;;;;;;;;;;;;5031191;28;1760;-77
2020/12/27 15:23:12;;;;;;;;;;;;;;;;;;5032576;28;1772;-77
2020/12/27 15:25:37;;;;;;;;;;;;;;;;;;5032159;28;1968;-73
2020/12/27 15:28:03;;;;;;;;;;;;;;;;;;5032653;28;1794;-76
2020/12/27 15:30:29;;;;;;;;;;;;;;;;;;5030424;28;1899;-77
2020/12/27 15:32:54;;;;;;;;;;;;;;;;;;5029668;28;1862;-76
2020/12/27 15:35:19;;;;;;;;;;;;;;;;;;5009828;28;1831;-73
2020/12/27 15:37:45;;;;;;;;;;;;;;;;;;5029129;28;1933;-75
2020/12/27 15:40:10;;;;;;;;;;;;;;;;;;5033307;28;1022;-75
2020/12/27 15:42:35;;;;;;;;;;;;;;;;;;5031400;28;1840;-74
2020/12/27 15:45:01;;;;;;;;;;;;;;;;;;5030788;28;2108;-74
2020/12/27 15:47:26;;;;;;;;;;;;;;;;;;5033802;28;868;-75
2020/12/27 15:49:51;;;;;;;;;;;;;;;;;;5032033;28;1782;-77
2020/12/27 15:52:17;;;;;;;;;;;;;;;;;;5032469;28;1342;-74
2020/12/27 15:54:42;;;;;;;;;;;;;;;;;;5033635;28;1302;-76
2020/12/27 15:57:07;;;;;;;;;;;;;;;;;;5033757;28;805;-77
2020/12/27 15:59:33;;;;;;;;;;;;;;;;;;5030120;28;1754;-76
2020/12/27 16:01:58;;;;;;;;;;;;;;;;;;5030816;28;1906;-76
2020/12/27 16:04:23;;;;;;;;;;;;;;;;;;5030375;28;1701;-74
2020/12/27 16:06:48;;;;;;;;;;;;;;;;;;5032603;28;1894;-77
2020/12/27 16:09:14;;;;;;;;;;;;;;;;;;5030618;28;1991;-75
2020/12/27 16:11:40;;;;;;;;;;;;;;;;;;5031812;28;1666;-76
2020/12/27 16:14:05;;;;;;;;;;;;;;;;;;5032540;28;1690;-76
2020/12/27 16:16:30;;;;;;;;;;;;;;;;;;5033382;28;1310;-75
2020/12/27 16:18:56;;;;;;;;;;;;;;;;;;5032412;28;1593;-74
2020/12/27 16:21:21;;;;;;;;;;;;;;;;;;5032669;28;1675;-74
2020/12/27 16:23:46;;;;;;;;;;;;;;;;;;5033346;28;971;-77
2020/12/27 16:26:12;;;;;;;;;;;;;;;;;;5036018;28;2041;-75
2020/12/27 16:28:37;;;;;;;;;;;;;;;;;;5035269;28;1844;-73
2020/12/27 16:31:03;;;;;;;;;;;;;;;;;;5035790;28;1689;-76
2020/12/27 16:33:29;;;;;;;;;;;;;;;;;;5035434;28;1747;-75
2020/12/27 16:35:54;;;;;;;;;;;;;;;;;;5036354;28;1767;-75
2020/12/27 16:38:19;;;;;;;;;;;;;;;;;;5031883;28;1721;-74
2020/12/27 16:40:44;;;;;;;;;;;;;;;;;;5029361;28;1911;-75
2020/12/27 16:43:10;;;;;;;;;;;;;;;;;;5033235;28;2016;-73
2020/12/27 16:45:35;;;;;;;;;;;;;;;;;;5034826;28;1951;-76
2020/12/27 16:48:00;;;;;;;;;;;;;;;;;;5032963;28;1936;-74
2020/12/27 16:50:26;;;;;;;;;;;;;;;;;;5033950;28;1685;-75
2020/12/27 16:52:51;;;;;;;;;;;;;;;;;;5036136;28;813;-76
2020/12/27 16:55:17;;;;;;;;;;;;;;;;;;5035715;28;1349;-75
2020/12/27 16:57:42;;;;;;;;;;;;;;;;;;5035163;28;1651;-76
2020/12/27 17:00:09;;;;;;;;;;;;;;;;;;5032888;28;1934;-76